sensor_id;sensor_type;location;lat;lon;timestamp;pressure;altitude;pressure_sealevel;temperature;humidity
37291;BME280;23175;-33.706;151.094;2023-05-19T00:00:48;100092.37;;;13.90;31.77
37291;BME280;23175;-33.706;151.094;2023-05-19T00:03:19;100089.61;;;15.47;29.78
37291;BME280;23175;-33.706;151.094;2023-05-19T00:05:50;100089.92;;;14.48;30.91
37291;BME280;23175;-33.706;151.094;2023-05-19T00:08:23;100083.30;;;15.84;30.69
37291;BME280;23175;-33.706;151.094;2023-05-19T00:10:54;100079.98;;;15.63;30.56
37291;BME280;23175;-33.706;151.094;2023-05-19T00:13:24;100080.42;;;15.08;31.47
37291;BME280;23175;-33.706;151.094;2023-05-19T00:15:55;100081.44;;;12.65;34.70
37291;BME280;23175;-33.706;151.094;2023-05-19T00:18:25;100078.28;;;12.56;34.96
37291;BME280;23175;-33.706;151.094;2023-05-19T00:20:55;100073.46;;;12.77;34.78
37291;BME280;23175;-33.706;151.094;2023-05-19T00:23:25;100072.46;;;14.78;32.52
37291;BME280;23175;-33.706;151.094;2023-05-19T00:25:55;100069.69;;;11.00;35.98
37291;BME280;23175;-33.706;151.094;2023-05-19T00:28:25;100062.50;;;12.91;35.12
37291;BME280;23175;-33.706;151.094;2023-05-19T00:30:55;100062.40;;;14.89;32.72
37291;BME280;23175;-33.706;151.094;2023-05-19T00:33:25;100058.75;;;14.55;32.42
37291;BME280;23175;-33.706;151.094;2023-05-19T00:35:55;100055.94;;;11.96;35.26
37291;BME280;23175;-33.706;151.094;2023-05-19T00:38:25;100050.15;;;10.42;35.71
37291;BME280;23175;-33.706;151.094;2023-05-19T00:40:55;100053.45;;;10.05;35.77
37291;BME280;23175;-33.706;151.094;2023-05-19T00:43:25;100046.95;;;11.18;33.19
37291;BME280;23175;-33.706;151.094;2023-05-19T00:45:57;100045.82;;;15.67;28.94
37291;BME280;23175;-33.706;151.094;2023-05-19T00:48:27;100043.22;;;17.42;26.47
37291;BME280;23175;-33.706;151.094;2023-05-19T00:50:58;100040.13;;;17.23;27.13
37291;BME280;23175;-33.706;151.094;2023-05-19T00:53:29;100042.70;;;16.09;28.09
37291;BME280;23175;-33.706;151.094;2023-05-19T00:56:00;100042.83;;;14.42;29.48
37291;BME280;23175;-33.706;151.094;2023-05-19T00:58:32;100039.30;;;16.58;27.70
37291;BME280;23175;-33.706;151.094;2023-05-19T01:01:02;100035.01;;;16.69;27.64
37291;BME280;23175;-33.706;151.094;2023-05-19T01:03:33;100032.99;;;15.74;28.92
37291;BME280;23175;-33.706;151.094;2023-05-19T01:06:03;100027.91;;;16.02;28.44
37291;BME280;23175;-33.706;151.094;2023-05-19T01:08:34;100026.02;;;15.05;30.03
37291;BME280;23175;-33.706;151.094;2023-05-19T01:11:05;100022.30;;;12.03;32.54
37291;BME280;23175;-33.706;151.094;2023-05-19T01:13:36;100018.40;;;13.18;31.61
37291;BME280;23175;-33.706;151.094;2023-05-19T01:16:11;100012.51;;;15.46;30.19
37291;BME280;23175;-33.706;151.094;2023-05-19T01:18:50;100010.10;;;14.87;31.96
37291;BME280;23175;-33.706;151.094;2023-05-19T01:23:42;99998.20;;;15.34;29.12
37291;BME280;23175;-33.706;151.094;2023-05-19T01:26:32;99992.98;;;14.59;30.62
37291;BME280;23175;-33.706;151.094;2023-05-19T01:29:27;99993.03;;;14.67;30.38
37291;BME280;23175;-33.706;151.094;2023-05-19T01:31:59;99990.04;;;14.58;30.75
37291;BME280;23175;-33.706;151.094;2023-05-19T01:34:34;99985.82;;;13.65;31.47
37291;BME280;23175;-33.706;151.094;2023-05-19T01:37:08;99979.53;;;10.76;33.39
37291;BME280;23175;-33.706;151.094;2023-05-19T01:39:39;99972.44;;;12.71;31.84
37291;BME280;23175;-33.706;151.094;2023-05-19T01:42:13;99969.65;;;11.38;34.23
37291;BME280;23175;-33.706;151.094;2023-05-19T01:44:45;99961.16;;;13.14;32.18
37291;BME280;23175;-33.706;151.094;2023-05-19T01:47:16;99954.93;;;13.03;31.93
37291;BME280;23175;-33.706;151.094;2023-05-19T01:49:46;99956.14;;;10.71;34.31
37291;BME280;23175;-33.706;151.094;2023-05-19T01:52:16;99945.54;;;11.45;32.46
37291;BME280;23175;-33.706;151.094;2023-05-19T01:54:46;99941.86;;;12.89;32.36
37291;BME280;23175;-33.706;151.094;2023-05-19T01:57:22;99936.84;;;12.25;32.65
37291;BME280;23175;-33.706;151.094;2023-05-19T02:00:01;99932.51;;;14.04;32.05
37291;BME280;23175;-33.706;151.094;2023-05-19T02:02:41;99924.21;;;11.96;34.01
37291;BME280;23175;-33.706;151.094;2023-05-19T02:05:17;99918.88;;;11.45;33.91
37291;BME280;23175;-33.706;151.094;2023-05-19T02:07:55;99909.30;;;12.06;33.75
37291;BME280;23175;-33.706;151.094;2023-05-19T02:10:28;99909.98;;;13.26;33.06
37291;BME280;23175;-33.706;151.094;2023-05-19T02:13:00;99904.01;;;13.36;31.81
37291;BME280;23175;-33.706;151.094;2023-05-19T02:15:37;99903.69;;;11.43;34.80
37291;BME280;23175;-33.706;151.094;2023-05-19T02:18:10;99900.23;;;13.71;31.44
37291;BME280;23175;-33.706;151.094;2023-05-19T02:20:40;99901.10;;;10.18;35.60
37291;BME280;23175;-33.706;151.094;2023-05-19T02:23:10;99896.14;;;12.98;33.25
37291;BME280;23175;-33.706;151.094;2023-05-19T02:25:40;99889.98;;;11.13;33.42
37291;BME280;23175;-33.706;151.094;2023-05-19T02:28:10;99885.85;;;13.18;31.82
37291;BME280;23175;-33.706;151.094;2023-05-19T02:30:40;99885.13;;;12.51;32.41
37291;BME280;23175;-33.706;151.094;2023-05-19T02:33:10;99880.60;;;10.40;35.31
37291;BME280;23175;-33.706;151.094;2023-05-19T02:35:41;99872.86;;;13.84;31.55
37291;BME280;23175;-33.706;151.094;2023-05-19T02:38:10;99873.30;;;12.35;32.29
37291;BME280;23175;-33.706;151.094;2023-05-19T02:40:40;99868.60;;;12.94;32.03
37291;BME280;23175;-33.706;151.094;2023-05-19T02:43:10;99866.16;;;9.64;34.97
37291;BME280;23175;-33.706;151.094;2023-05-19T02:45:40;99861.24;;;11.30;33.07
37291;BME280;23175;-33.706;151.094;2023-05-19T02:48:11;99858.91;;;12.37;33.04
37291;BME280;23175;-33.706;151.094;2023-05-19T02:50:41;99861.56;;;11.64;34.46
37291;BME280;23175;-33.706;151.094;2023-05-19T02:53:11;99854.43;;;11.13;33.96
37291;BME280;23175;-33.706;151.094;2023-05-19T02:55:40;99852.49;;;10.56;33.60
37291;BME280;23175;-33.706;151.094;2023-05-19T02:58:10;99847.40;;;11.53;33.76
37291;BME280;23175;-33.706;151.094;2023-05-19T03:00:40;99845.98;;;12.24;33.12
37291;BME280;23175;-33.706;151.094;2023-05-19T03:03:10;99841.65;;;12.50;31.70
37291;BME280;23175;-33.706;151.094;2023-05-19T03:05:40;99836.98;;;12.23;31.94
37291;BME280;23175;-33.706;151.094;2023-05-19T03:08:10;99833.19;;;11.36;33.27
37291;BME280;23175;-33.706;151.094;2023-05-19T03:10:40;99828.49;;;12.10;32.25
37291;BME280;23175;-33.706;151.094;2023-05-19T03:13:10;99821.76;;;11.78;33.13
37291;BME280;23175;-33.706;151.094;2023-05-19T03:15:40;99825.23;;;13.65;31.69
37291;BME280;23175;-33.706;151.094;2023-05-19T03:18:09;99819.12;;;11.57;33.31
37291;BME280;23175;-33.706;151.094;2023-05-19T03:20:39;99819.73;;;10.47;35.46
37291;BME280;23175;-33.706;151.094;2023-05-19T03:23:10;99808.14;;;13.48;30.70
37291;BME280;23175;-33.706;151.094;2023-05-19T03:25:40;99808.80;;;11.99;32.64
37291;BME280;23175;-33.706;151.094;2023-05-19T03:28:09;99798.94;;;11.92;31.03
37291;BME280;23175;-33.706;151.094;2023-05-19T03:30:39;99798.06;;;10.81;33.62
37291;BME280;23175;-33.706;151.094;2023-05-19T03:33:09;99800.55;;;11.27;33.40
37291;BME280;23175;-33.706;151.094;2023-05-19T03:35:38;99790.93;;;11.92;32.13
37291;BME280;23175;-33.706;151.094;2023-05-19T03:38:08;99787.37;;;12.30;31.70
37291;BME280;23175;-33.706;151.094;2023-05-19T03:40:38;99787.54;;;13.27;32.09
37291;BME280;23175;-33.706;151.094;2023-05-19T03:43:08;99783.54;;;12.29;32.20
37291;BME280;23175;-33.706;151.094;2023-05-19T03:45:38;99780.86;;;12.77;31.17
37291;BME280;23175;-33.706;151.094;2023-05-19T03:48:09;99780.54;;;11.37;32.25
37291;BME280;23175;-33.706;151.094;2023-05-19T03:50:39;99776.19;;;13.70;30.52
37291;BME280;23175;-33.706;151.094;2023-05-19T03:53:09;99775.95;;;12.24;31.59
37291;BME280;23175;-33.706;151.094;2023-05-19T03:55:39;99770.77;;;11.32;31.83
37291;BME280;23175;-33.706;151.094;2023-05-19T03:58:09;99768.08;;;11.31;31.45
37291;BME280;23175;-33.706;151.094;2023-05-19T04:00:39;99764.49;;;11.40;32.51
37291;BME280;23175;-33.706;151.094;2023-05-19T04:03:09;99762.73;;;12.56;31.42
37291;BME280;23175;-33.706;151.094;2023-05-19T04:05:38;99763.33;;;13.24;30.89
37291;BME280;23175;-33.706;151.094;2023-05-19T04:08:08;99765.38;;;13.11;31.73
37291;BME280;23175;-33.706;151.094;2023-05-19T04:10:38;99762.01;;;12.35;30.92
37291;BME280;23175;-33.706;151.094;2023-05-19T04:13:09;99759.85;;;13.91;30.29
37291;BME280;23175;-33.706;151.094;2023-05-19T04:15:39;99756.77;;;10.71;32.79
37291;BME280;23175;-33.706;151.094;2023-05-19T04:18:08;99759.05;;;11.34;34.39
37291;BME280;23175;-33.706;151.094;2023-05-19T04:20:39;99754.58;;;11.57;31.76
37291;BME280;23175;-33.706;151.094;2023-05-19T04:23:08;99754.87;;;13.25;29.93
37291;BME280;23175;-33.706;151.094;2023-05-19T04:25:38;99756.11;;;13.54;30.53
37291;BME280;23175;-33.706;151.094;2023-05-19T04:28:09;99755.58;;;13.21;30.63
37291;BME280;23175;-33.706;151.094;2023-05-19T04:30:38;99750.01;;;10.65;32.09
37291;BME280;23175;-33.706;151.094;2023-05-19T04:33:09;99745.46;;;10.39;32.45
37291;BME280;23175;-33.706;151.094;2023-05-19T04:35:39;99749.63;;;12.27;31.98
37291;BME280;23175;-33.706;151.094;2023-05-19T04:38:09;99741.43;;;12.35;31.25
37291;BME280;23175;-33.706;151.094;2023-05-19T04:40:38;99743.03;;;13.48;30.57
37291;BME280;23175;-33.706;151.094;2023-05-19T04:43:08;99740.08;;;14.59;30.52
37291;BME280;23175;-33.706;151.094;2023-05-19T04:45:38;99740.36;;;13.38;31.38
37291;BME280;23175;-33.706;151.094;2023-05-19T04:48:09;99737.51;;;13.35;31.00
37291;BME280;23175;-33.706;151.094;2023-05-19T04:50:39;99738.38;;;13.71;30.96
37291;BME280;23175;-33.706;151.094;2023-05-19T04:53:10;99735.39;;;13.95;31.00
37291;BME280;23175;-33.706;151.094;2023-05-19T04:55:39;99735.78;;;15.02;30.85
37291;BME280;23175;-33.706;151.094;2023-05-19T04:58:09;99735.28;;;11.57;32.77
37291;BME280;23175;-33.706;151.094;2023-05-19T05:00:39;99733.26;;;10.87;31.49
37291;BME280;23175;-33.706;151.094;2023-05-19T05:03:13;99740.29;;;13.52;30.59
37291;BME280;23175;-33.706;151.094;2023-05-19T05:05:43;99733.96;;;13.31;32.22
37291;BME280;23175;-33.706;151.094;2023-05-19T05:08:13;99732.24;;;14.90;29.20
37291;BME280;23175;-33.706;151.094;2023-05-19T05:10:44;99738.23;;;13.54;30.07
37291;BME280;23175;-33.706;151.094;2023-05-19T05:13:15;99733.08;;;12.98;30.50
37291;BME280;23175;-33.706;151.094;2023-05-19T05:15:46;99731.87;;;16.86;27.50
37291;BME280;23175;-33.706;151.094;2023-05-19T05:18:16;99734.93;;;13.00;32.09
37291;BME280;23175;-33.706;151.094;2023-05-19T05:20:47;99729.06;;;14.01;30.34
37291;BME280;23175;-33.706;151.094;2023-05-19T05:23:18;99733.05;;;14.18;29.93
37291;BME280;23175;-33.706;151.094;2023-05-19T05:25:49;99737.15;;;13.03;31.66
37291;BME280;23175;-33.706;151.094;2023-05-19T05:28:19;99741.01;;;12.35;31.62
37291;BME280;23175;-33.706;151.094;2023-05-19T05:30:49;99742.38;;;12.87;31.04
37291;BME280;23175;-33.706;151.094;2023-05-19T05:33:19;99735.94;;;14.94;30.12
37291;BME280;23175;-33.706;151.094;2023-05-19T05:35:49;99735.35;;;15.26;29.45
37291;BME280;23175;-33.706;151.094;2023-05-19T05:38:19;99737.86;;;15.68;30.82
37291;BME280;23175;-33.706;151.094;2023-05-19T05:40:49;99739.38;;;15.97;31.99
37291;BME280;23175;-33.706;151.094;2023-05-19T05:43:18;99740.96;;;15.92;32.41
37291;BME280;23175;-33.706;151.094;2023-05-19T05:45:49;99737.32;;;15.95;31.48
37291;BME280;23175;-33.706;151.094;2023-05-19T05:48:20;99740.30;;;15.70;32.44
37291;BME280;23175;-33.706;151.094;2023-05-19T05:50:50;99737.12;;;16.56;30.87
37291;BME280;23175;-33.706;151.094;2023-05-19T05:53:21;99734.39;;;16.23;32.14
37291;BME280;23175;-33.706;151.094;2023-05-19T05:55:54;99734.45;;;16.10;30.77
37291;BME280;23175;-33.706;151.094;2023-05-19T05:58:23;99734.72;;;17.12;30.55
37291;BME280;23175;-33.706;151.094;2023-05-19T06:00:54;99735.58;;;15.67;33.01
37291;BME280;23175;-33.706;151.094;2023-05-19T06:03:24;99738.84;;;15.25;33.69
37291;BME280;23175;-33.706;151.094;2023-05-19T06:05:54;99737.99;;;14.63;34.42
37291;BME280;23175;-33.706;151.094;2023-05-19T06:08:24;99737.52;;;16.56;32.53
37291;BME280;23175;-33.706;151.094;2023-05-19T06:10:54;99736.11;;;16.51;32.47
37291;BME280;23175;-33.706;151.094;2023-05-19T06:13:24;99736.66;;;16.71;32.37
37291;BME280;23175;-33.706;151.094;2023-05-19T06:15:55;99741.90;;;14.62;35.06
37291;BME280;23175;-33.706;151.094;2023-05-19T06:18:27;99742.03;;;16.50;32.86
37291;BME280;23175;-33.706;151.094;2023-05-19T06:20:57;99742.77;;;15.61;34.18
37291;BME280;23175;-33.706;151.094;2023-05-19T06:23:29;99746.06;;;13.98;36.67
37291;BME280;23175;-33.706;151.094;2023-05-19T06:25:59;99747.99;;;14.94;35.41
37291;BME280;23175;-33.706;151.094;2023-05-19T06:28:29;99746.63;;;15.70;35.37
37291;BME280;23175;-33.706;151.094;2023-05-19T06:31:00;99747.15;;;15.93;34.86
37291;BME280;23175;-33.706;151.094;2023-05-19T06:33:29;99747.26;;;15.78;35.08
37291;BME280;23175;-33.706;151.094;2023-05-19T06:36:00;99748.02;;;14.82;35.51
37291;BME280;23175;-33.706;151.094;2023-05-19T06:38:30;99745.75;;;15.72;34.76
37291;BME280;23175;-33.706;151.094;2023-05-19T06:41:00;99748.18;;;14.97;35.43
37291;BME280;23175;-33.706;151.094;2023-05-19T06:43:29;99751.51;;;14.18;37.22
37291;BME280;23175;-33.706;151.094;2023-05-19T06:45:59;99749.35;;;14.30;35.97
37291;BME280;23175;-33.706;151.094;2023-05-19T06:48:30;99753.56;;;15.09;35.96
37291;BME280;23175;-33.706;151.094;2023-05-19T06:51:00;99754.34;;;14.86;35.53
37291;BME280;23175;-33.706;151.094;2023-05-19T06:53:30;99754.13;;;15.30;35.24
37291;BME280;23175;-33.706;151.094;2023-05-19T06:56:00;99756.00;;;14.59;35.16
37291;BME280;23175;-33.706;151.094;2023-05-19T06:58:30;99762.71;;;15.07;35.21
37291;BME280;23175;-33.706;151.094;2023-05-19T07:00:59;99764.29;;;14.33;35.49
37291;BME280;23175;-33.706;151.094;2023-05-19T07:03:29;99767.61;;;15.03;36.07
37291;BME280;23175;-33.706;151.094;2023-05-19T07:06:00;99767.98;;;14.32;36.40
37291;BME280;23175;-33.706;151.094;2023-05-19T07:08:30;99773.81;;;15.02;36.55
37291;BME280;23175;-33.706;151.094;2023-05-19T07:11:00;99776.08;;;14.55;36.28
37291;BME280;23175;-33.706;151.094;2023-05-19T07:13:30;99779.37;;;14.83;36.62
37291;BME280;23175;-33.706;151.094;2023-05-19T07:16:00;99783.21;;;14.01;37.05
37291;BME280;23175;-33.706;151.094;2023-05-19T07:18:29;99781.56;;;14.72;37.56
37291;BME280;23175;-33.706;151.094;2023-05-19T07:20:59;99782.37;;;14.16;37.80
37291;BME280;23175;-33.706;151.094;2023-05-19T07:23:29;99782.11;;;14.47;38.20
37291;BME280;23175;-33.706;151.094;2023-05-19T07:25:59;99785.70;;;14.46;38.34
37291;BME280;23175;-33.706;151.094;2023-05-19T07:28:30;99784.55;;;14.63;37.83
37291;BME280;23175;-33.706;151.094;2023-05-19T07:31:01;99786.10;;;13.88;37.94
37291;BME280;23175;-33.706;151.094;2023-05-19T07:33:31;99789.92;;;14.14;38.76
37291;BME280;23175;-33.706;151.094;2023-05-19T07:36:00;99792.22;;;14.00;38.47
37291;BME280;23175;-33.706;151.094;2023-05-19T07:38:31;99793.32;;;14.04;38.81
37291;BME280;23175;-33.706;151.094;2023-05-19T07:41:02;99797.51;;;13.91;39.08
37291;BME280;23175;-33.706;151.094;2023-05-19T07:43:32;99796.66;;;14.34;39.43
37291;BME280;23175;-33.706;151.094;2023-05-19T07:46:02;99799.95;;;13.45;40.06
37291;BME280;23175;-33.706;151.094;2023-05-19T07:48:33;99799.05;;;14.23;40.04
37291;BME280;23175;-33.706;151.094;2023-05-19T07:51:03;99800.65;;;13.47;39.34
37291;BME280;23175;-33.706;151.094;2023-05-19T07:53:33;99803.94;;;13.98;39.39
37291;BME280;23175;-33.706;151.094;2023-05-19T07:56:04;99807.21;;;13.50;39.60
37291;BME280;23175;-33.706;151.094;2023-05-19T07:58:34;99810.18;;;13.22;40.03
37291;BME280;23175;-33.706;151.094;2023-05-19T08:01:05;99811.80;;;12.92;40.40
37291;BME280;23175;-33.706;151.094;2023-05-19T08:03:35;99814.33;;;12.73;41.24
37291;BME280;23175;-33.706;151.094;2023-05-19T08:06:05;99817.82;;;13.59;39.72
37291;BME280;23175;-33.706;151.094;2023-05-19T08:08:36;99819.67;;;13.34;40.23
37291;BME280;23175;-33.706;151.094;2023-05-19T08:11:06;99818.24;;;13.46;40.04
37291;BME280;23175;-33.706;151.094;2023-05-19T08:13:35;99820.01;;;13.50;39.81
37291;BME280;23175;-33.706;151.094;2023-05-19T08:16:06;99820.64;;;13.54;39.73
37291;BME280;23175;-33.706;151.094;2023-05-19T08:18:35;99822.01;;;13.25;40.31
37291;BME280;23175;-33.706;151.094;2023-05-19T08:21:05;99821.66;;;13.29;40.46
37291;BME280;23175;-33.706;151.094;2023-05-19T08:23:35;99821.17;;;13.09;40.45
37291;BME280;23175;-33.706;151.094;2023-05-19T08:26:05;99822.69;;;13.17;40.65
37291;BME280;23175;-33.706;151.094;2023-05-19T08:28:35;99824.54;;;13.16;40.67
37291;BME280;23175;-33.706;151.094;2023-05-19T08:31:05;99826.51;;;12.91;40.90
37291;BME280;23175;-33.706;151.094;2023-05-19T08:33:35;99830.36;;;12.91;41.01
37291;BME280;23175;-33.706;151.094;2023-05-19T08:36:06;99829.42;;;12.93;40.94
37291;BME280;23175;-33.706;151.094;2023-05-19T08:38:35;99827.90;;;12.92;41.21
37291;BME280;23175;-33.706;151.094;2023-05-19T08:41:05;99830.72;;;12.79;41.39
37291;BME280;23175;-33.706;151.094;2023-05-19T08:43:36;99834.81;;;12.62;41.58
37291;BME280;23175;-33.706;151.094;2023-05-19T08:46:06;99837.15;;;12.73;41.44
37291;BME280;23175;-33.706;151.094;2023-05-19T08:48:46;99845.81;;;12.47;41.41
37291;BME280;23175;-33.706;151.094;2023-05-19T08:51:26;99851.86;;;12.11;42.02
37291;BME280;23175;-33.706;151.094;2023-05-19T08:54:07;99854.26;;;12.31;41.50
37291;BME280;23175;-33.706;151.094;2023-05-19T08:56:43;99857.14;;;12.27;40.93
37291;BME280;23175;-33.706;151.094;2023-05-19T08:59:14;99858.57;;;12.44;41.11
37291;BME280;23175;-33.706;151.094;2023-05-19T09:01:45;99860.57;;;12.78;41.03
37291;BME280;23175;-33.706;151.094;2023-05-19T09:04:17;99862.88;;;12.39;41.81
37291;BME280;23175;-33.706;151.094;2023-05-19T09:06:47;99865.35;;;12.89;41.70
37291;BME280;23175;-33.706;151.094;2023-05-19T09:09:17;99865.74;;;12.47;41.69
37291;BME280;23175;-33.706;151.094;2023-05-19T09:11:47;99867.16;;;12.38;41.60
37291;BME280;23175;-33.706;151.094;2023-05-19T09:14:18;99869.72;;;12.02;42.66
37291;BME280;23175;-33.706;151.094;2023-05-19T09:16:48;99875.63;;;12.39;41.73
37291;BME280;23175;-33.706;151.094;2023-05-19T09:19:18;99880.91;;;12.59;41.91
37291;BME280;23175;-33.706;151.094;2023-05-19T09:21:58;99884.51;;;12.11;41.84
37291;BME280;23175;-33.706;151.094;2023-05-19T09:24:29;99889.33;;;13.14;41.47
37291;BME280;23175;-33.706;151.094;2023-05-19T09:26:59;99897.82;;;11.69;41.77
37291;BME280;23175;-33.706;151.094;2023-05-19T09:29:29;99898.42;;;11.88;42.16
37291;BME280;23175;-33.706;151.094;2023-05-19T09:31:59;99900.87;;;11.53;41.64
37291;BME280;23175;-33.706;151.094;2023-05-19T09:34:29;99905.95;;;12.04;42.07
37291;BME280;23175;-33.706;151.094;2023-05-19T09:37:00;99903.64;;;11.49;42.35
37291;BME280;23175;-33.706;151.094;2023-05-19T09:39:30;99907.12;;;11.98;42.09
37291;BME280;23175;-33.706;151.094;2023-05-19T09:42:02;99909.53;;;11.60;40.54
37291;BME280;23175;-33.706;151.094;2023-05-19T09:44:36;99911.97;;;12.48;41.22
37291;BME280;23175;-33.706;151.094;2023-05-19T09:47:09;99914.30;;;12.12;40.92
37291;BME280;23175;-33.706;151.094;2023-05-19T09:49:46;99915.65;;;12.17;41.63
37291;BME280;23175;-33.706;151.094;2023-05-19T09:52:16;99922.25;;;12.10;41.46
37291;BME280;23175;-33.706;151.094;2023-05-19T09:54:46;99922.29;;;11.96;41.61
37291;BME280;23175;-33.706;151.094;2023-05-19T09:57:17;99923.71;;;11.74;42.01
37291;BME280;23175;-33.706;151.094;2023-05-19T09:59:47;99928.17;;;11.73;41.42
37291;BME280;23175;-33.706;151.094;2023-05-19T10:02:17;99931.60;;;12.05;41.45
37291;BME280;23175;-33.706;151.094;2023-05-19T10:04:50;99932.05;;;12.53;41.18
37291;BME280;23175;-33.706;151.094;2023-05-19T10:07:21;99935.78;;;12.02;41.59
37291;BME280;23175;-33.706;151.094;2023-05-19T10:09:54;99937.46;;;12.03;41.39
37291;BME280;23175;-33.706;151.094;2023-05-19T10:12:26;99940.07;;;12.19;41.45
37291;BME280;23175;-33.706;151.094;2023-05-19T10:14:57;99947.12;;;11.54;42.24
37291;BME280;23175;-33.706;151.094;2023-05-19T10:17:28;99948.50;;;11.48;42.35
37291;BME280;23175;-33.706;151.094;2023-05-19T10:19:58;99948.20;;;11.55;42.41
37291;BME280;23175;-33.706;151.094;2023-05-19T10:22:29;99948.78;;;11.68;42.03
37291;BME280;23175;-33.706;151.094;2023-05-19T10:24:59;99951.51;;;11.76;42.03
37291;BME280;23175;-33.706;151.094;2023-05-19T10:27:31;99957.78;;;11.56;42.89
37291;BME280;23175;-33.706;151.094;2023-05-19T10:30:07;99957.49;;;11.80;42.69
37291;BME280;23175;-33.706;151.094;2023-05-19T10:32:41;99955.91;;;11.81;41.96
37291;BME280;23175;-33.706;151.094;2023-05-19T10:35:41;99955.29;;;11.62;41.60
37291;BME280;23175;-33.706;151.094;2023-05-19T10:38:31;99958.42;;;11.46;41.78
37291;BME280;23175;-33.706;151.094;2023-05-19T10:41:10;99960.95;;;11.30;43.17
37291;BME280;23175;-33.706;151.094;2023-05-19T10:43:52;99965.27;;;11.40;43.30
37291;BME280;23175;-33.706;151.094;2023-05-19T10:46:25;99970.23;;;11.83;41.59
37291;BME280;23175;-33.706;151.094;2023-05-19T10:48:56;99973.63;;;11.62;42.67
37291;BME280;23175;-33.706;151.094;2023-05-19T10:51:30;99976.08;;;10.88;42.25
37291;BME280;23175;-33.706;151.094;2023-05-19T10:54:03;99975.83;;;11.24;43.00
37291;BME280;23175;-33.706;151.094;2023-05-19T10:56:39;99977.20;;;11.42;42.84
37291;BME280;23175;-33.706;151.094;2023-05-19T10:59:31;99973.69;;;11.47;41.92
37291;BME280;23175;-33.706;151.094;2023-05-19T11:02:04;99973.55;;;10.93;41.48
37291;BME280;23175;-33.706;151.094;2023-05-19T11:04:47;99975.57;;;11.00;42.86
37291;BME280;23175;-33.706;151.094;2023-05-19T11:07:19;99973.68;;;11.37;42.91
37291;BME280;23175;-33.706;151.094;2023-05-19T11:09:50;99977.84;;;10.95;42.82
37291;BME280;23175;-33.706;151.094;2023-05-19T11:12:22;99979.14;;;11.04;42.59
37291;BME280;23175;-33.706;151.094;2023-05-19T11:14:54;99977.59;;;11.37;41.97
37291;BME280;23175;-33.706;151.094;2023-05-19T11:17:26;99978.04;;;11.11;43.56
37291;BME280;23175;-33.706;151.094;2023-05-19T11:19:58;99980.01;;;10.80;43.57
37291;BME280;23175;-33.706;151.094;2023-05-19T11:22:28;99978.70;;;10.79;42.79
37291;BME280;23175;-33.706;151.094;2023-05-19T11:24:58;99977.87;;;10.52;42.81
37291;BME280;23175;-33.706;151.094;2023-05-19T11:27:30;99977.67;;;10.79;42.56
37291;BME280;23175;-33.706;151.094;2023-05-19T11:30:07;99981.34;;;10.33;43.58
37291;BME280;23175;-33.706;151.094;2023-05-19T11:32:38;99981.09;;;11.40;42.56
37291;BME280;23175;-33.706;151.094;2023-05-19T11:35:09;99976.43;;;11.30;42.25
37291;BME280;23175;-33.706;151.094;2023-05-19T11:37:39;99978.32;;;11.02;42.38
37291;BME280;23175;-33.706;151.094;2023-05-19T11:40:09;99984.20;;;11.01;42.80
37291;BME280;23175;-33.706;151.094;2023-05-19T11:42:39;99984.89;;;10.68;43.52
37291;BME280;23175;-33.706;151.094;2023-05-19T11:45:10;99982.43;;;10.80;42.79
37291;BME280;23175;-33.706;151.094;2023-05-19T11:47:40;99983.92;;;10.85;43.00
37291;BME280;23175;-33.706;151.094;2023-05-19T11:50:11;99980.68;;;10.35;43.54
37291;BME280;23175;-33.706;151.094;2023-05-19T11:52:45;99980.48;;;10.62;44.17
37291;BME280;23175;-33.706;151.094;2023-05-19T11:55:17;99978.66;;;10.79;43.32
37291;BME280;23175;-33.706;151.094;2023-05-19T11:58:08;99979.80;;;11.10;42.40
37291;BME280;23175;-33.706;151.094;2023-05-19T12:00:39;99979.27;;;11.01;42.42
37291;BME280;23175;-33.706;151.094;2023-05-19T12:03:09;99977.80;;;10.57;43.75
37291;BME280;23175;-33.706;151.094;2023-05-19T12:05:43;99977.60;;;10.96;43.47
37291;BME280;23175;-33.706;151.094;2023-05-19T12:08:13;99978.45;;;10.83;43.76
37291;BME280;23175;-33.706;151.094;2023-05-19T12:10:48;99975.52;;;10.60;43.54
37291;BME280;23175;-33.706;151.094;2023-05-19T12:13:20;99972.03;;;10.70;43.41
37291;BME280;23175;-33.706;151.094;2023-05-19T12:15:52;99970.41;;;10.43;43.79
37291;BME280;23175;-33.706;151.094;2023-05-19T12:18:22;99971.24;;;10.30;43.57
37291;BME280;23175;-33.706;151.094;2023-05-19T12:20:53;99966.67;;;10.43;43.61
37291;BME280;23175;-33.706;151.094;2023-05-19T12:23:23;99967.28;;;10.54;43.51
37291;BME280;23175;-33.706;151.094;2023-05-19T12:25:54;99966.48;;;10.60;43.71
37291;BME280;23175;-33.706;151.094;2023-05-19T12:28:24;99964.46;;;10.68;43.56
37291;BME280;23175;-33.706;151.094;2023-05-19T12:30:55;99964.53;;;10.60;43.79
37291;BME280;23175;-33.706;151.094;2023-05-19T12:33:25;99963.85;;;10.59;43.54
37291;BME280;23175;-33.706;151.094;2023-05-19T12:35:57;99963.98;;;10.60;43.28
37291;BME280;23175;-33.706;151.094;2023-05-19T12:38:27;99961.61;;;10.39;43.57
37291;BME280;23175;-33.706;151.094;2023-05-19T12:40:59;99957.47;;;9.77;43.92
37291;BME280;23175;-33.706;151.094;2023-05-19T12:43:30;99956.48;;;10.56;43.27
37291;BME280;23175;-33.706;151.094;2023-05-19T12:46:10;99957.34;;;9.95;43.71
37291;BME280;23175;-33.706;151.094;2023-05-19T12:48:44;99958.25;;;10.81;42.97
37291;BME280;23175;-33.706;151.094;2023-05-19T12:51:18;99953.65;;;10.38;43.01